createdAt,value
2023-03-06T00:01:00.834Z,99934.81
2023-03-06T00:03:29.571Z,99935.79
2023-03-06T00:05:59.267Z,99929.52
2023-03-06T00:08:28.584Z,99933.24
2023-03-06T00:11:01.011Z,99934.56
2023-03-06T00:13:35.407Z,99934.27
2023-03-06T00:16:07.318Z,99936.60
2023-03-06T00:18:36.243Z,99929.95
2023-03-06T00:21:14.596Z,99934.59
2023-03-06T00:23:50.435Z,99931.29
2023-03-06T00:26:19.192Z,99931.84
2023-03-06T00:28:47.805Z,99931.95
2023-03-06T00:31:18.970Z,99932.27
2023-03-06T00:33:51.125Z,99930.77
2023-03-06T00:36:19.585Z,99935.53
2023-03-06T00:38:48.848Z,99933.11
2023-03-06T00:41:17.888Z,99930.15
2023-03-06T00:43:46.596Z,99932.48
2023-03-06T00:46:15.470Z,99929.86
2023-03-06T00:48:45.612Z,99926.67
2023-03-06T00:51:20.044Z,99926.77
2023-03-06T00:53:49.271Z,99920.66
2023-03-06T00:56:20.125Z,99920.80
2023-03-06T00:58:50.293Z,99916.16
2023-03-06T01:01:18.715Z,99921.83
2023-03-06T01:03:47.214Z,99920.96
2023-03-06T01:06:17.831Z,99920.73
2023-03-06T01:08:47.084Z,99921.70
2023-03-06T01:11:15.778Z,99922.44
2023-03-06T01:13:45.422Z,99925.52
2023-03-06T01:16:16.625Z,99922.21
2023-03-06T01:18:45.910Z,99923.77
2023-03-06T01:21:14.694Z,99920.13
2023-03-06T01:23:43.812Z,99922.29
2023-03-06T01:26:12.449Z,99931.42
2023-03-06T01:28:41.246Z,99926.45
2023-03-06T01:31:11.087Z,99927.50
2023-03-06T01:33:40.102Z,99927.75
2023-03-06T01:36:10.092Z,99922.14
2023-03-06T01:38:38.544Z,99919.08
2023-03-06T01:41:07.433Z,99920.60
2023-03-06T01:43:37.651Z,99918.11
2023-03-06T01:46:19.762Z,99914.67
2023-03-06T01:48:48.526Z,99912.80
2023-03-06T01:51:17.325Z,99917.67
2023-03-06T01:53:45.820Z,99916.29
2023-03-06T01:56:14.614Z,99915.38
2023-03-06T01:58:44.145Z,99914.91
2023-03-06T02:01:13.514Z,99913.80
2023-03-06T02:03:46.346Z,99915.84
2023-03-06T02:06:21.896Z,99914.10
2023-03-06T02:08:51.541Z,99915.02
2023-03-06T02:11:24.453Z,99915.02
2023-03-06T02:13:54.221Z,99917.33
2023-03-06T02:16:29.403Z,99911.46
2023-03-06T02:19:01.338Z,99911.52
2023-03-06T02:21:35.085Z,99911.10
2023-03-06T02:24:41.836Z,99914.11
2023-03-06T02:27:11.254Z,99914.31
2023-03-06T02:29:43.934Z,99916.00
2023-03-06T02:32:12.706Z,99917.13
2023-03-06T02:35:00.286Z,99915.13
2023-03-06T02:37:32.825Z,99918.91
2023-03-06T02:40:08.421Z,99915.03
2023-03-06T02:42:37.886Z,99916.34
2023-03-06T02:45:07.388Z,99916.84
2023-03-06T02:47:35.969Z,99914.86
2023-03-06T02:50:07.219Z,99916.48
2023-03-06T02:52:35.654Z,99919.06
2023-03-06T02:55:04.561Z,99916.48
2023-03-06T02:57:37.474Z,99919.95
2023-03-06T03:00:07.654Z,99921.11
2023-03-06T03:02:36.299Z,99917.75
2023-03-06T03:05:06.573Z,99916.52
2023-03-06T03:07:39.596Z,99918.49
2023-03-06T03:10:09.479Z,99914.40
2023-03-06T03:12:40.827Z,99914.06
2023-03-06T03:15:10.309Z,99911.95
2023-03-06T03:17:40.193Z,99911.52
2023-03-06T03:20:14.262Z,99913.52
2023-03-06T03:22:43.175Z,99909.44
2023-03-06T03:25:13.709Z,99905.83
2023-03-06T03:27:42.791Z,99907.28
2023-03-06T03:30:16.378Z,99907.37
2023-03-06T03:32:45.041Z,99906.17
2023-03-06T03:35:13.733Z,99908.02
2023-03-06T03:37:45.217Z,99905.64
2023-03-06T03:40:14.078Z,99905.78
2023-03-06T03:42:43.203Z,99904.95
2023-03-06T03:45:12.247Z,99909.40
2023-03-06T03:47:43.029Z,99909.46
2023-03-06T03:50:12.246Z,99911.34
2023-03-06T03:52:44.233Z,99909.61
2023-03-06T03:55:13.191Z,99904.76
2023-03-06T03:57:43.461Z,99902.94
2023-03-06T04:00:16.837Z,99901.48
2023-03-06T04:02:52.970Z,99902.27
2023-03-06T04:05:43.127Z,99903.77
2023-03-06T04:08:14.018Z,99905.96
2023-03-06T04:10:46.233Z,99909.73
2023-03-06T04:13:16.173Z,99910.10
2023-03-06T04:15:47.487Z,99911.92
2023-03-06T04:18:16.905Z,99911.91
2023-03-06T04:20:48.610Z,99910.80
2023-03-06T04:23:18.036Z,99910.50
2023-03-06T04:25:46.830Z,99914.48
2023-03-06T04:28:27.640Z,99919.23
2023-03-06T04:30:59.241Z,99919.83
2023-03-06T04:33:28.082Z,99919.55
2023-03-06T04:35:56.704Z,99923.13
2023-03-06T04:38:29.316Z,99925.95
2023-03-06T04:41:01.920Z,99927.70
2023-03-06T04:43:30.676Z,99921.93
2023-03-06T04:45:59.792Z,99916.86
2023-03-06T04:48:28.180Z,99911.41
2023-03-06T04:50:57.355Z,99909.10
2023-03-06T04:53:27.226Z,99912.70
2023-03-06T04:55:56.599Z,99913.83
2023-03-06T04:58:27.290Z,99916.47
2023-03-06T05:00:55.799Z,99917.58
2023-03-06T05:03:24.260Z,99917.73
2023-03-06T05:05:53.355Z,99918.38
2023-03-06T05:08:23.897Z,99922.48
2023-03-06T05:11:00.930Z,99923.68
2023-03-06T05:13:29.658Z,99920.85
2023-03-06T05:16:02.845Z,99922.10
2023-03-06T05:18:35.768Z,99920.85
2023-03-06T05:21:04.806Z,99917.85
2023-03-06T05:23:34.644Z,99916.72
2023-03-06T05:26:09.153Z,99916.37
2023-03-06T05:28:38.409Z,99918.59
2023-03-06T05:31:09.541Z,99920.67
2023-03-06T05:33:42.334Z,99921.78
2023-03-06T05:36:11.520Z,99925.45
2023-03-06T05:38:46.111Z,99932.19
2023-03-06T05:41:15.593Z,99939.70
2023-03-06T05:43:44.134Z,99952.77
2023-03-06T05:46:13.438Z,99962.73
2023-03-06T05:48:42.123Z,99970.34
2023-03-06T05:51:10.696Z,99966.69
2023-03-06T05:53:39.488Z,99975.91
2023-03-06T05:56:11.601Z,99980.62
2023-03-06T05:58:42.040Z,99980.03
2023-03-06T06:01:15.799Z,99980.66
2023-03-06T06:03:45.722Z,99983.73
2023-03-06T06:06:14.916Z,99990.38
2023-03-06T06:08:44.804Z,99990.09
2023-03-06T06:11:14.030Z,99990.05
2023-03-06T06:13:45.585Z,99992.79
2023-03-06T06:16:16.658Z,99996.17
2023-03-06T06:18:45.855Z,99998.61
2023-03-06T06:21:20.270Z,100002.23
2023-03-06T06:23:48.723Z,100006.48
2023-03-06T06:26:17.441Z,100006.50
2023-03-06T06:28:46.114Z,100010.17
2023-03-06T06:31:15.182Z,100006.43
2023-03-06T06:33:45.552Z,100008.25
2023-03-06T06:36:16.600Z,100009.73
2023-03-06T06:38:45.356Z,100011.16
2023-03-06T06:44:08.125Z,100013.23
2023-03-06T06:47:34.743Z,100013.05
2023-03-06T06:49:27.607Z,100017.20
2023-03-06T06:51:56.958Z,100008.48
2023-03-06T06:54:25.605Z,100010.63
2023-03-06T06:56:54.657Z,100009.95
2023-03-06T06:59:25.965Z,100011.92
2023-03-06T07:01:55.010Z,100015.75
2023-03-06T07:04:25.952Z,100016.12
2023-03-06T07:06:56.801Z,100019.17
2023-03-06T07:09:25.563Z,100009.84
2023-03-06T07:11:54.112Z,100016.46
2023-03-06T07:14:22.607Z,100007.73
2023-03-06T07:16:50.977Z,100009.79
2023-03-06T07:19:21.347Z,100008.23
2023-03-06T07:21:50.807Z,100005.78
2023-03-06T07:24:19.179Z,100002.82
2023-03-06T07:26:48.509Z,99999.22
2023-03-06T07:29:19.971Z,99996.84
2023-03-06T07:31:48.680Z,99998.23
2023-03-06T07:34:17.164Z,99995.34
2023-03-06T07:36:46.095Z,99996.14
2023-03-06T07:39:14.584Z,99994.48
2023-03-06T07:41:42.983Z,99991.35
2023-03-06T07:44:13.857Z,99993.52
2023-03-06T07:46:43.128Z,99989.45
2023-03-06T07:49:11.914Z,99988.45
2023-03-06T07:51:40.428Z,99994.23
2023-03-06T07:54:08.873Z,100001.46
2023-03-06T07:56:37.614Z,100005.65
2023-03-06T07:59:06.418Z,100007.98
2023-03-06T08:01:36.577Z,100010.58
2023-03-06T08:04:06.163Z,100014.17
2023-03-06T08:06:34.922Z,100017.30
2023-03-06T08:09:07.861Z,100025.04
2023-03-06T08:11:36.278Z,100027.74
2023-03-06T08:14:06.078Z,100033.12
2023-03-06T08:16:37.587Z,100040.74
2023-03-06T08:19:06.907Z,100047.42
2023-03-06T08:21:36.257Z,100045.02
2023-03-06T08:24:07.572Z,100046.21
2023-03-06T08:26:37.249Z,100048.41
2023-03-06T08:29:06.391Z,100054.04
2023-03-06T08:31:37.518Z,100053.84
2023-03-06T08:34:14.153Z,100055.68
2023-03-06T08:36:42.586Z,100065.46
2023-03-06T08:39:11.015Z,100066.51
2023-03-06T08:41:39.965Z,100069.88
2023-03-06T08:44:08.935Z,100070.88
2023-03-06T08:46:37.463Z,100073.33
2023-03-06T08:49:07.211Z,100070.80
2023-03-06T08:51:36.406Z,100066.20
2023-03-06T08:54:04.819Z,100067.88
2023-03-06T08:56:33.841Z,100069.86
2023-03-06T08:59:04.063Z,100067.86
2023-03-06T09:01:35.393Z,100063.09
2023-03-06T09:04:24.267Z,100072.36
2023-03-06T09:06:54.618Z,100076.60
2023-03-06T09:09:24.781Z,100068.13
2023-03-06T09:11:55.225Z,100064.70
2023-03-06T09:14:23.643Z,100061.51
2023-03-06T09:16:52.225Z,100062.72
2023-03-06T09:19:20.714Z,100059.69
2023-03-06T09:21:49.593Z,100060.66
2023-03-06T09:24:18.170Z,100057.20
2023-03-06T09:26:48.845Z,100059.39
2023-03-06T09:29:18.501Z,100057.27
2023-03-06T09:31:48.522Z,100052.58
2023-03-06T09:34:17.253Z,100054.00
2023-03-06T09:36:56.122Z,100055.35
2023-03-06T09:39:26.453Z,100055.45
2023-03-06T09:41:55.418Z,100060.18
2023-03-06T09:44:29.657Z,100057.71
2023-03-06T09:47:26.073Z,100059.78
2023-03-06T09:50:21.604Z,100060.34
2023-03-06T09:53:16.450Z,100064.85
2023-03-06T09:56:04.317Z,100056.23
2023-03-06T09:58:34.761Z,100061.23
2023-03-06T10:01:10.147Z,100061.86
2023-03-06T10:04:08.335Z,100060.80
2023-03-06T10:06:47.658Z,100059.64
2023-03-06T10:09:26.632Z,100055.72
2023-03-06T10:12:17.554Z,100056.09
2023-03-06T10:14:55.830Z,100052.24
2023-03-06T10:17:26.442Z,100052.01
2023-03-06T10:19:55.445Z,100046.21
2023-03-06T10:22:44.815Z,100046.52
2023-03-06T10:25:38.986Z,100042.10
2023-03-06T10:28:18.705Z,100037.33
2023-03-06T10:30:54.152Z,100037.40
2023-03-06T10:33:48.683Z,100039.36
2023-03-06T10:36:18.232Z,100037.05
2023-03-06T10:38:48.937Z,100039.98
2023-03-06T10:41:33.053Z,100036.48
2023-03-06T10:44:01.910Z,100031.02
2023-03-06T10:46:32.931Z,100033.52
2023-03-06T10:49:06.588Z,100030.61
2023-03-06T10:51:38.388Z,100036.40
2023-03-06T10:54:14.002Z,100030.24
2023-03-06T10:56:45.951Z,100019.33
2023-03-06T10:59:32.601Z,100024.98
2023-03-06T11:02:33.038Z,100035.16
2023-03-06T11:05:02.074Z,100031.88
2023-03-06T11:07:35.940Z,100029.48
2023-03-06T11:10:04.426Z,100030.68
2023-03-06T11:12:40.378Z,100022.61
2023-03-06T11:15:15.129Z,100017.65
2023-03-06T11:18:04.744Z,100023.15
2023-03-06T11:20:52.825Z,100021.83
2023-03-06T11:23:38.400Z,100026.93
2023-03-06T11:26:16.185Z,100022.85
2023-03-06T11:28:48.620Z,100018.96
2023-03-06T11:31:24.788Z,100019.83
2023-03-06T11:34:02.742Z,100020.68
2023-03-06T11:36:41.835Z,100021.73
2023-03-06T11:39:37.447Z,100022.67
2023-03-06T11:42:06.385Z,100026.11
2023-03-06T11:44:52.643Z,100027.08
2023-03-06T11:47:30.170Z,100030.11
2023-03-06T11:50:06.536Z,100027.83
2023-03-06T11:53:01.870Z,100026.61
2023-03-06T11:55:39.458Z,100027.48
2023-03-06T11:58:16.807Z,100031.49
2023-03-06T12:01:06.774Z,100028.27
2023-03-06T12:03:47.662Z,100025.34
2023-03-06T12:06:19.248Z,100031.75
2023-03-06T12:08:54.536Z,100036.37
2023-03-06T12:11:26.561Z,100034.27
2023-03-06T12:14:18.936Z,100040.89
2023-03-06T12:16:53.537Z,100039.95
2023-03-06T12:19:58.722Z,100040.94
2023-03-06T12:22:57.952Z,100044.73
2023-03-06T12:25:40.272Z,100049.27
2023-03-06T12:28:17.871Z,100050.52
2023-03-06T12:31:08.330Z,100051.13
2023-03-06T12:34:28.937Z,100051.90
2023-03-06T12:37:23.006Z,100049.80
2023-03-06T12:40:12.526Z,100051.42
2023-03-06T12:43:00.665Z,100050.65
2023-03-06T12:45:33.788Z,100051.71
2023-03-06T12:48:20.946Z,100056.26
2023-03-06T12:50:50.266Z,100047.84
2023-03-06T12:53:27.994Z,100052.36
2023-03-06T12:56:02.289Z,100052.04
2023-03-06T12:58:31.312Z,100057.92
2023-03-06T13:01:15.210Z,100053.14
2023-03-06T13:04:02.683Z,100051.23
2023-03-06T13:07:02.894Z,100060.80
2023-03-06T13:10:02.225Z,100066.17
2023-03-06T13:12:56.847Z,100065.63
2023-03-06T13:15:32.998Z,100070.89
2023-03-06T13:18:22.050Z,100072.02
2023-03-06T13:20:54.876Z,100074.80
2023-03-06T13:23:30.807Z,100081.65
2023-03-06T13:26:02.374Z,100086.64
2023-03-06T13:28:45.347Z,100084.42
2023-03-06T13:31:26.415Z,100093.02
2023-03-06T13:34:26.872Z,100094.30
2023-03-06T13:37:20.183Z,100104.08
2023-03-06T13:40:01.839Z,100103.45
2023-03-06T13:42:38.204Z,100108.36
2023-03-06T13:45:16.931Z,100111.97
2023-03-06T13:48:19.550Z,100113.36
2023-03-06T13:50:49.621Z,100113.59
2023-03-06T13:53:53.713Z,100118.28
2023-03-06T13:56:37.532Z,100122.48
2023-03-06T13:59:18.862Z,100121.86
2023-03-06T14:02:10.610Z,100129.95
2023-03-06T14:04:58.702Z,100128.95
2023-03-06T14:07:30.052Z,100132.61
2023-03-06T14:10:09.351Z,100131.84
2023-03-06T14:12:50.444Z,100131.77
2023-03-06T14:15:21.936Z,100133.39
2023-03-06T14:18:02.352Z,100139.23
2023-03-06T14:20:40.674Z,100140.64
2023-03-06T14:23:22.523Z,100141.96
2023-03-06T14:25:57.600Z,100146.26
2023-03-06T14:28:31.892Z,100150.92
2023-03-06T14:31:02.347Z,100151.63
2023-03-06T14:33:33.058Z,100153.98
2023-03-06T14:36:04.255Z,100157.31
2023-03-06T14:38:36.570Z,100157.39
2023-03-06T14:41:05.442Z,100164.10
2023-03-06T14:43:34.048Z,100167.61
2023-03-06T14:46:14.038Z,100171.97
2023-03-06T14:48:44.514Z,100170.86
2023-03-06T14:51:21.462Z,100171.56
2023-03-06T14:53:53.135Z,100173.49
2023-03-06T14:56:23.708Z,100171.23
2023-03-06T14:58:56.038Z,100174.43
2023-03-06T15:01:35.350Z,100175.45
2023-03-06T15:04:27.245Z,100180.34
2023-03-06T15:06:55.745Z,100182.67
2023-03-06T15:09:30.010Z,100186.39
2023-03-06T15:12:07.252Z,100187.12
2023-03-06T15:14:41.172Z,100191.20
2023-03-06T15:17:18.835Z,100194.77
2023-03-06T15:19:49.905Z,100198.34
2023-03-06T15:22:40.288Z,100202.55
2023-03-06T15:25:26.942Z,100204.61
2023-03-06T15:28:03.504Z,100204.27
2023-03-06T15:30:36.396Z,100203.86
2023-03-06T15:33:20.265Z,100206.67
2023-03-06T15:35:57.539Z,100205.65
2023-03-06T15:38:46.456Z,100209.98
2023-03-06T15:41:34.208Z,100212.13
2023-03-06T15:44:13.412Z,100215.40
2023-03-06T15:46:41.963Z,100210.92
2023-03-06T15:49:14.169Z,100211.95
2023-03-06T15:51:43.633Z,100215.48
2023-03-06T15:54:12.931Z,100213.98
2023-03-06T15:56:45.814Z,100216.95
2023-03-06T15:59:26.376Z,100216.66
2023-03-06T16:01:55.319Z,100219.75
2023-03-06T16:04:24.171Z,100223.50
2023-03-06T16:06:52.718Z,100223.05
2023-03-06T16:09:23.010Z,100226.92
2023-03-06T16:11:52.423Z,100227.61
2023-03-06T16:14:24.217Z,100229.11
2023-03-06T16:16:54.413Z,100232.11
2023-03-06T16:19:26.345Z,100234.63
2023-03-06T16:21:56.433Z,100235.34
2023-03-06T16:24:26.458Z,100235.80
2023-03-06T16:26:56.518Z,100237.34
2023-03-06T16:29:27.630Z,100239.20
2023-03-06T16:31:56.924Z,100241.55
2023-03-06T16:34:26.097Z,100248.79
2023-03-06T16:36:55.271Z,100245.33
2023-03-06T16:39:24.178Z,100245.23
2023-03-06T16:41:54.248Z,100241.66
2023-03-06T16:44:22.953Z,100242.39
2023-03-06T16:46:51.465Z,100241.14
2023-03-06T16:49:23.837Z,100243.02
2023-03-06T16:51:52.989Z,100245.48
2023-03-06T16:54:24.906Z,100246.82
2023-03-06T16:56:55.767Z,100250.52
2023-03-06T16:59:27.797Z,100250.65
2023-03-06T17:01:58.563Z,100254.79
2023-03-06T17:04:27.661Z,100257.95
2023-03-06T17:06:56.498Z,100258.48
2023-03-06T17:09:25.642Z,100256.94
2023-03-06T17:11:54.281Z,100255.36
2023-03-06T17:14:23.093Z,100258.66
2023-03-06T17:16:54.422Z,100258.77
2023-03-06T17:19:23.245Z,100259.60
2023-03-06T17:21:52.001Z,100259.08
2023-03-06T17:24:20.594Z,100258.09
2023-03-06T17:26:59.006Z,100256.91
2023-03-06T17:29:28.444Z,100262.41
2023-03-06T17:31:59.978Z,100261.91
2023-03-06T17:34:29.679Z,100268.95
2023-03-06T17:37:02.582Z,100269.48
2023-03-06T17:39:34.687Z,100270.24
2023-03-06T17:42:03.730Z,100271.02
2023-03-06T17:44:35.126Z,100268.08
2023-03-06T17:47:04.957Z,100269.86
2023-03-06T17:49:35.624Z,100272.27
2023-03-06T17:52:05.949Z,100270.58
2023-03-06T17:54:34.839Z,100269.81
2023-03-06T17:57:05.632Z,100273.66
2023-03-06T17:59:34.765Z,100277.06
2023-03-06T18:02:06.679Z,100276.55
2023-03-06T18:04:36.991Z,100275.27
2023-03-06T18:07:05.877Z,100271.67
2023-03-06T18:09:37.706Z,100271.86
2023-03-06T18:12:07.406Z,100274.64
2023-03-06T18:14:37.347Z,100278.35
2023-03-06T18:17:06.593Z,100279.60
2023-03-06T18:19:39.332Z,100281.20
2023-03-06T18:22:08.303Z,100286.02
2023-03-06T18:24:37.681Z,100289.41
2023-03-06T18:27:28.904Z,100287.93
2023-03-06T18:29:59.958Z,100289.56
2023-03-06T18:32:28.632Z,100290.33
2023-03-06T18:34:57.508Z,100293.81
2023-03-06T18:37:26.962Z,100293.62
2023-03-06T18:39:55.457Z,100296.48
2023-03-06T18:42:24.919Z,100297.73
2023-03-06T18:44:54.556Z,100302.37
2023-03-06T18:47:25.385Z,100307.83
2023-03-06T18:49:59.232Z,100306.14
2023-03-06T18:52:28.676Z,100307.17
2023-03-06T18:54:58.500Z,100305.42
2023-03-06T18:57:29.946Z,100301.89
2023-03-06T18:59:58.824Z,100298.27
2023-03-06T19:02:29.263Z,100300.05
2023-03-06T19:04:58.012Z,100301.48
2023-03-06T19:07:27.400Z,100306.08
2023-03-06T19:09:56.222Z,100311.30
2023-03-06T19:12:25.284Z,100311.68
2023-03-06T19:14:56.033Z,100312.96
2023-03-06T19:17:25.118Z,100309.83
2023-03-06T19:19:55.732Z,100311.05
2023-03-06T19:22:24.426Z,100310.27
2023-03-06T19:24:55.199Z,100310.52
2023-03-06T19:27:24.257Z,100311.98
2023-03-06T19:29:52.569Z,100310.70
2023-03-06T19:32:22.618Z,100306.33
2023-03-06T19:34:51.501Z,100308.16
2023-03-06T19:37:21.241Z,100307.27
2023-03-06T19:39:50.256Z,100307.40
2023-03-06T19:42:21.073Z,100306.50
2023-03-06T19:44:50.456Z,100309.00
2023-03-06T19:47:19.113Z,100311.20
2023-03-06T19:49:49.066Z,100308.57
2023-03-06T19:52:19.279Z,100307.11
2023-03-06T19:54:52.835Z,100304.91
2023-03-06T19:57:21.421Z,100303.47
2023-03-06T19:59:54.273Z,100302.52
2023-03-06T20:02:27.509Z,100302.00
2023-03-06T20:04:56.525Z,100304.89
2023-03-06T20:07:29.029Z,100300.36
2023-03-06T20:10:01.015Z,100295.27
2023-03-06T20:12:35.761Z,100299.04
2023-03-06T20:15:06.304Z,100293.83
2023-03-06T20:17:35.911Z,100291.46
2023-03-06T20:20:04.903Z,100294.14
2023-03-06T20:22:33.820Z,100291.98
2023-03-06T20:25:06.772Z,100297.03
2023-03-06T20:27:35.473Z,100294.67
2023-03-06T20:30:05.928Z,100298.06
2023-03-06T20:32:38.748Z,100301.59
2023-03-06T20:35:08.253Z,100303.91
2023-03-06T20:37:38.103Z,100302.27
2023-03-06T20:40:07.611Z,100302.17
2023-03-06T20:42:36.209Z,100301.95
2023-03-06T20:45:06.707Z,100303.33
2023-03-06T20:47:36.006Z,100302.84
2023-03-06T20:50:06.544Z,100300.83
2023-03-06T20:52:36.873Z,100296.74
2023-03-06T20:55:10.852Z,100290.48
2023-03-06T20:57:40.397Z,100291.89
2023-03-06T21:00:12.490Z,100292.27
2023-03-06T21:03:00.836Z,100293.66
2023-03-06T21:05:30.497Z,100292.91
2023-03-06T21:07:59.580Z,100288.85
2023-03-06T21:10:27.987Z,100286.23
2023-03-06T21:12:58.217Z,100283.06
2023-03-06T21:15:30.316Z,100284.88
2023-03-06T21:17:58.596Z,100293.44
2023-03-06T21:20:27.504Z,100294.70
2023-03-06T21:22:56.630Z,100294.52
2023-03-06T21:25:32.264Z,100295.10
2023-03-06T21:28:01.231Z,100294.79
2023-03-06T21:30:30.212Z,100295.34
2023-03-06T21:32:59.560Z,100292.57
2023-03-06T21:35:28.017Z,100289.80
2023-03-06T21:37:58.551Z,100295.29
2023-03-06T21:40:26.993Z,100294.14
2023-03-06T21:42:55.216Z,100299.31
2023-03-06T21:45:25.474Z,100297.45
2023-03-06T21:47:59.810Z,100296.52
2023-03-06T21:50:28.250Z,100294.39
2023-03-06T21:52:57.378Z,100289.29
2023-03-06T21:55:27.059Z,100289.98
2023-03-06T21:57:55.532Z,100289.77
2023-03-06T22:00:25.924Z,100289.98
2023-03-06T22:02:54.868Z,100292.30
2023-03-06T22:05:24.696Z,100293.51
2023-03-06T22:07:55.737Z,100292.02
2023-03-06T22:10:24.245Z,100296.64
2023-03-06T22:12:54.303Z,100296.82
2023-03-06T22:15:24.298Z,100295.01
2023-03-06T22:17:55.388Z,100297.70
2023-03-06T22:20:23.924Z,100291.83
2023-03-06T22:22:57.498Z,100294.00
2023-03-06T22:25:25.737Z,100291.27
2023-03-06T22:27:54.123Z,100289.76
2023-03-06T22:30:22.846Z,100290.08
2023-03-06T22:32:53.310Z,100288.39
2023-03-06T22:35:21.945Z,100285.24
2023-03-06T22:37:50.360Z,100286.02
2023-03-06T22:40:19.223Z,100287.09
2023-03-06T22:42:47.589Z,100284.52
2023-03-06T22:45:22.843Z,100283.27
2023-03-06T22:47:55.148Z,100283.30
2023-03-06T22:50:26.030Z,100278.36
2023-03-06T22:52:54.514Z,100275.70
2023-03-06T22:55:25.571Z,100275.26
2023-03-06T22:57:54.598Z,100274.95
2023-03-06T23:00:26.572Z,100274.80
2023-03-06T23:02:55.210Z,100273.58
2023-03-06T23:05:25.075Z,100267.88
2023-03-06T23:07:54.245Z,100266.77
2023-03-06T23:10:22.847Z,100267.68
2023-03-06T23:13:10.472Z,100264.48
2023-03-06T23:15:57.483Z,100267.73
2023-03-06T23:18:45.868Z,100268.77
2023-03-06T23:21:34.653Z,100265.63
2023-03-06T23:24:22.756Z,100265.84
2023-03-06T23:26:51.598Z,100264.27
2023-03-06T23:29:20.157Z,100261.05
2023-03-06T23:31:48.666Z,100262.52
2023-03-06T23:34:17.097Z,100261.81
2023-03-06T23:36:46.163Z,100259.02
2023-03-06T23:39:14.837Z,100259.96
2023-03-06T23:41:45.034Z,100259.98
2023-03-06T23:44:13.737Z,100258.16
2023-03-06T23:46:47.140Z,100256.41
2023-03-06T23:49:15.387Z,100249.64
2023-03-06T23:51:43.827Z,100248.07
2023-03-06T23:54:12.478Z,100251.96
2023-03-06T23:56:40.937Z,100248.74
2023-03-06T23:59:11.621Z,100249.48
